Terminal Aerodrome Forecast
Issued by NWS Portland, OR

Home | Current Version | Previous Version | Text Only | Print | Product List | Glossary On
Versions: 1 2 3 4 5 6 7 8 9 10 11 12 13 14 15 16 17 18 19 20 21 22 23 24 25 26 27
000
FTUS46 KPQR 131754
TAFHIO
TAF
KHIO 131754Z 1318/1418 VRB05KT P6SM VCTS SCT070 BKN090CB OVC150
     FM131900 VRB05KT P6SM TSRA BKN070CB BKN150 BKN250
     FM132100 VRB05KT P6SM VCTS BKN070CB BKN150
     FM140700 30011KT P6SM SCT040 BKN100=

USA.gov is the U.S. government's official web portal to all federal, state and local government web resources and services.